createdAt,value
2022-08-05T00:00:30.178Z,31.63
2022-08-05T00:02:31.785Z,31.53
2022-08-05T00:04:33.440Z,31.85
2022-08-05T00:06:35.916Z,32.14
2022-08-05T00:08:38.295Z,31.62
2022-08-05T00:10:39.886Z,31.83
2022-08-05T00:12:56.466Z,31.93
2022-08-05T00:14:58.653Z,31.09
2022-08-05T00:17:01.907Z,31.79
2022-08-05T00:19:05.196Z,31.27
2022-08-05T00:21:08.359Z,31.27
2022-08-05T00:23:12.968Z,30.98
2022-08-05T00:25:14.863Z,32.00
2022-08-05T00:27:18.110Z,30.92
2022-08-05T00:29:25.703Z,30.50
2022-08-05T00:31:53.046Z,31.60
2022-08-05T00:34:56.202Z,31.45
2022-08-05T00:36:16.415Z,31.65
2022-08-05T00:38:33.984Z,31.67
2022-08-05T00:40:51.950Z,32.25
2022-08-05T00:42:56.610Z,31.71
2022-08-05T00:44:59.321Z,31.99
2022-08-05T00:47:02.129Z,32.04
2022-08-05T00:49:05.922Z,32.15
2022-08-05T00:51:50.914Z,31.93
2022-08-05T00:54:01.325Z,31.16
2022-08-05T00:55:52.937Z,31.93
2022-08-05T00:57:58.594Z,31.54
2022-08-05T01:00:00.734Z,31.40
2022-08-05T01:02:02.341Z,31.18
2022-08-05T01:04:04.107Z,31.67
2022-08-05T01:06:15.628Z,31.72
2022-08-05T01:08:40.529Z,31.97
2022-08-05T01:10:52.177Z,32.26
2022-08-05T01:13:05.180Z,32.46
2022-08-05T01:15:36.249Z,32.16
2022-08-05T01:17:45.248Z,32.26
2022-08-05T01:20:13.933Z,32.15
2022-08-05T01:22:18.809Z,32.34
2022-08-05T01:24:50.824Z,31.83
2022-08-05T01:26:52.580Z,30.95
2022-08-05T01:29:00.630Z,31.45
2022-08-05T01:31:14.991Z,32.11
2022-08-05T01:33:19.707Z,32.42
2022-08-05T01:35:51.153Z,31.45
2022-08-05T01:37:56.666Z,31.54
2022-08-05T01:40:05.468Z,31.80
2022-08-05T01:42:12.524Z,30.74
2022-08-05T01:44:16.328Z,30.99
2022-08-05T01:46:42.579Z,31.85
2022-08-05T01:48:45.793Z,30.86
2022-08-05T01:50:52.592Z,31.29
2022-08-05T01:52:57.727Z,31.20
2022-08-05T01:55:04.636Z,31.09
2022-08-05T01:58:10.723Z,31.05
2022-08-05T01:59:34.014Z,31.09
2022-08-05T02:01:39.929Z,31.85
2022-08-05T02:03:46.605Z,32.11
2022-08-05T02:05:50.581Z,31.81
2022-08-05T02:08:01.378Z,31.29
2022-08-05T02:10:05.674Z,30.87
2022-08-05T02:12:15.072Z,31.18
2022-08-05T02:14:24.272Z,31.39
2022-08-05T02:16:32.983Z,31.75
2022-08-05T02:18:44.745Z,31.53
2022-08-05T02:20:58.865Z,31.81
2022-08-05T02:23:05.712Z,31.49
2022-08-05T02:25:24.781Z,31.80
2022-08-05T02:27:30.129Z,31.64
2022-08-05T02:29:58.883Z,31.87
2022-08-05T02:32:04.626Z,31.48
2022-08-05T02:34:14.070Z,30.78
2022-08-05T02:36:19.242Z,30.90
2022-08-05T02:38:21.629Z,30.95
2022-08-05T02:40:29.592Z,30.52
2022-08-05T02:42:36.114Z,31.09
2022-08-05T02:44:39.502Z,31.41
2022-08-05T02:46:53.447Z,31.71
2022-08-05T02:49:02.654Z,31.66
2022-08-05T02:51:05.642Z,31.18
2022-08-05T02:53:07.386Z,29.86
2022-08-05T02:55:14.423Z,30.45
2022-08-05T02:58:12.348Z,30.66
2022-08-05T02:59:47.915Z,31.10
2022-08-05T03:01:58.173Z,31.12
2022-08-05T03:04:11.982Z,30.93
2022-08-05T03:06:53.704Z,31.15
2022-08-05T03:08:42.596Z,31.21
2022-08-05T03:11:53.759Z,31.99
2022-08-05T03:13:16.851Z,31.68
2022-08-05T03:15:20.143Z,31.61
2022-08-05T03:17:22.081Z,31.44
2022-08-05T03:19:34.470Z,31.83
2022-08-05T03:21:41.686Z,31.89
2022-08-05T03:23:51.363Z,31.48
2022-08-05T03:26:04.614Z,31.64
2022-08-05T03:28:18.680Z,31.50
2022-08-05T03:30:28.672Z,31.35
2022-08-05T03:32:35.999Z,30.75
2022-08-05T03:34:38.550Z,30.20
2022-08-05T03:36:41.481Z,31.10
2022-08-05T03:38:43.264Z,31.34
2022-08-05T03:40:55.506Z,31.44
2022-08-05T03:43:01.349Z,31.58
2022-08-05T03:45:21.619Z,31.40
2022-08-05T03:47:24.401Z,31.45
2022-08-05T03:49:31.134Z,31.29
2022-08-05T03:52:38.381Z,30.68
2022-08-05T03:55:51.169Z,30.43
2022-08-05T03:57:00.103Z,30.30
2022-08-05T03:59:06.406Z,29.74
2022-08-05T04:01:11.246Z,30.01
2022-08-05T04:03:28.879Z,30.23
2022-08-05T04:05:34.636Z,30.63
2022-08-05T04:07:58.295Z,30.31
2022-08-05T04:10:02.874Z,30.30
2022-08-05T04:12:05.351Z,29.78
2022-08-05T04:14:30.462Z,29.57
2022-08-05T04:16:33.600Z,29.56
2022-08-05T04:18:36.234Z,29.50
2022-08-05T04:20:37.903Z,29.27
2022-08-05T04:22:42.844Z,29.45
2022-08-05T04:24:52.952Z,29.24
2022-08-05T04:26:54.799Z,28.99
2022-08-05T04:29:00.784Z,28.90
2022-08-05T04:31:10.623Z,29.33
2022-08-05T04:33:13.155Z,29.58
2022-08-05T04:35:17.768Z,30.05
2022-08-05T04:37:21.714Z,29.88
2022-08-05T04:39:43.112Z,30.08
2022-08-05T04:41:45.640Z,30.18
2022-08-05T04:43:52.035Z,30.47
2022-08-05T04:45:55.739Z,30.46
2022-08-05T04:48:10.277Z,29.77
2022-08-05T04:50:37.309Z,29.52
2022-08-05T04:52:39.328Z,30.05
2022-08-05T04:54:41.391Z,30.36
2022-08-05T04:56:43.608Z,30.56
2022-08-05T04:58:45.392Z,30.34
2022-08-05T05:00:47.563Z,30.41
2022-08-05T05:02:52.650Z,30.29
2022-08-05T05:05:02.334Z,30.42
2022-08-05T05:07:05.212Z,30.11
2022-08-05T05:09:17.696Z,30.57
2022-08-05T05:11:20.137Z,29.95
2022-08-05T05:13:22.713Z,29.50
2022-08-05T05:15:56.422Z,30.10
2022-08-05T05:17:56.460Z,30.29
2022-08-05T05:19:59.247Z,30.63
2022-08-05T05:22:03.629Z,30.31
2022-08-05T05:24:23.489Z,30.21
2022-08-05T05:26:46.483Z,30.76
2022-08-05T05:28:49.769Z,31.14
2022-08-05T05:30:51.617Z,31.02
2022-08-05T05:32:53.327Z,30.50
2022-08-05T05:34:55.093Z,31.13
2022-08-05T05:36:56.678Z,30.35
2022-08-05T05:38:58.765Z,30.23
2022-08-05T05:41:00.618Z,30.02
2022-08-05T05:43:03.343Z,30.58
2022-08-05T05:45:05.460Z,30.78
2022-08-05T05:47:13.299Z,30.43
2022-08-05T05:49:23.338Z,28.98
2022-08-05T05:51:27.956Z,29.54
2022-08-05T05:53:29.809Z,29.76
2022-08-05T05:55:51.981Z,29.59
2022-08-05T05:58:02.754Z,30.42
2022-08-05T06:00:08.956Z,29.20
2022-08-05T06:02:11.816Z,28.12
2022-08-05T06:04:14.534Z,29.35
2022-08-05T06:06:16.360Z,29.50
2022-08-05T06:08:32.301Z,29.19
2022-08-05T06:10:37.439Z,28.85
2022-08-05T06:12:50.636Z,29.68
2022-08-05T06:14:52.226Z,30.54
2022-08-05T06:16:55.666Z,30.25
2022-08-05T06:19:01.181Z,30.92
2022-08-05T06:21:04.570Z,30.69
2022-08-05T06:23:09.716Z,30.05
2022-08-05T06:25:25.063Z,30.34
2022-08-05T06:28:10.931Z,31.08
2022-08-05T06:30:05.907Z,31.25
2022-08-05T06:32:26.434Z,31.28
2022-08-05T06:34:30.666Z,30.99
2022-08-05T06:36:37.283Z,30.25
2022-08-05T06:38:54.804Z,30.88
2022-08-05T06:40:57.119Z,30.78
2022-08-05T06:43:01.355Z,30.76
2022-08-05T06:45:08.358Z,30.83
2022-08-05T06:47:29.914Z,30.92
2022-08-05T06:50:00.424Z,30.39
2022-08-05T06:51:53.912Z,30.40
2022-08-05T06:53:57.308Z,30.87
2022-08-05T06:56:03.309Z,30.76
2022-08-05T06:58:20.285Z,30.54
2022-08-05T07:00:26.808Z,30.40
2022-08-05T07:02:31.426Z,30.82
2022-08-05T07:04:33.070Z,30.51
2022-08-05T07:06:34.938Z,30.99
2022-08-05T07:08:36.507Z,31.04
2022-08-05T07:10:39.263Z,30.21
2022-08-05T07:13:13.437Z,30.17
2022-08-05T07:15:34.433Z,29.67
2022-08-05T07:17:59.255Z,30.20
2022-08-05T07:22:30.239Z,30.75
2022-08-05T07:24:32.082Z,30.76
2022-08-05T07:26:46.545Z,30.83
2022-08-05T07:28:48.779Z,31.01
2022-08-05T07:30:52.906Z,30.10
2022-08-05T07:32:57.399Z,30.52
2022-08-05T07:34:59.100Z,30.81
2022-08-05T07:37:00.714Z,30.76
2022-08-05T07:39:05.194Z,30.78
2022-08-05T07:42:06.798Z,31.18
2022-08-05T07:43:31.551Z,30.39
2022-08-05T07:45:57.700Z,30.56
2022-08-05T07:47:58.620Z,30.67
2022-08-05T07:50:00.536Z,30.08
2022-08-05T07:52:08.328Z,30.08
2022-08-05T07:54:11.523Z,29.93
2022-08-05T07:57:00.441Z,30.75
2022-08-05T07:58:57.553Z,30.98
2022-08-05T08:00:57.663Z,31.14
2022-08-05T08:03:14.025Z,30.61
2022-08-05T08:05:17.597Z,31.36
2022-08-05T08:07:22.841Z,30.64
2022-08-05T08:09:25.274Z,30.84
2022-08-05T08:11:48.288Z,31.33
2022-08-05T08:14:00.627Z,31.43
2022-08-05T08:16:49.880Z,31.96
2022-08-05T08:18:24.447Z,31.67
2022-08-05T08:21:00.568Z,31.70
2022-08-05T08:23:03.352Z,32.27
2022-08-05T08:25:16.643Z,30.95
2022-08-05T08:27:19.557Z,32.14
2022-08-05T08:30:03.852Z,32.21
2022-08-05T08:31:43.120Z,32.18
2022-08-05T08:33:45.388Z,31.97
2022-08-05T08:35:52.462Z,32.31
2022-08-05T08:37:56.364Z,32.53
2022-08-05T08:39:58.162Z,31.67
2022-08-05T08:42:02.252Z,31.56
2022-08-05T08:45:20.551Z,31.94
2022-08-05T08:46:32.212Z,31.77
2022-08-05T08:49:02.462Z,31.61
2022-08-05T08:51:03.225Z,30.88
2022-08-05T08:53:12.588Z,30.64
2022-08-05T08:55:19.303Z,32.34
2022-08-05T08:57:41.994Z,32.44
2022-08-05T08:59:50.082Z,32.01
2022-08-05T09:01:57.549Z,32.34
2022-08-05T09:04:02.981Z,33.01
2022-08-05T09:06:08.949Z,32.41
2022-08-05T09:08:13.114Z,32.29
2022-08-05T09:10:16.759Z,31.86
2022-08-05T09:12:27.325Z,32.13
2022-08-05T09:14:56.576Z,31.92
2022-08-05T09:16:54.237Z,32.03
2022-08-05T09:18:56.107Z,32.37
2022-08-05T09:21:01.019Z,32.06
2022-08-05T09:23:05.457Z,31.48
2022-08-05T09:25:13.993Z,31.65
2022-08-05T09:28:06.029Z,32.16
2022-08-05T09:30:04.638Z,32.35
2022-08-05T09:32:42.934Z,31.53
2022-08-05T09:34:55.422Z,31.75
2022-08-05T09:36:59.327Z,31.89
2022-08-05T09:39:18.215Z,32.12
2022-08-05T09:41:24.075Z,32.07
2022-08-05T09:43:41.766Z,32.04
2022-08-05T09:46:07.082Z,31.58
2022-08-05T09:48:31.458Z,32.31
2022-08-05T09:50:44.392Z,31.91
2022-08-05T09:52:48.392Z,32.04
2022-08-05T09:55:59.056Z,32.18
2022-08-05T09:57:47.678Z,31.67
2022-08-05T09:59:49.259Z,31.34
2022-08-05T10:01:57.901Z,31.67
2022-08-05T10:04:10.527Z,31.50
2022-08-05T10:06:14.814Z,31.57
2022-08-05T10:08:37.666Z,31.38
2022-08-05T10:10:50.192Z,31.60
2022-08-05T10:12:58.768Z,31.47
2022-08-05T10:15:17.058Z,31.79
2022-08-05T10:17:37.340Z,32.19
2022-08-05T10:20:04.432Z,31.71
2022-08-05T10:22:02.751Z,31.95
2022-08-05T10:24:10.702Z,31.86
2022-08-05T10:26:14.552Z,32.41
2022-08-05T10:28:29.336Z,32.39
2022-08-05T10:32:47.510Z,31.74
2022-08-05T10:33:02.502Z,32.38
2022-08-05T10:35:04.748Z,32.69
2022-08-05T10:37:07.302Z,32.61
2022-08-05T10:39:24.435Z,32.42
2022-08-05T10:41:47.425Z,32.51
2022-08-05T10:43:54.762Z,32.97
2022-08-05T10:46:06.169Z,32.07
2022-08-05T10:48:57.027Z,31.85
2022-08-05T10:51:04.868Z,32.37
2022-08-05T10:53:34.510Z,32.49
2022-08-05T10:56:05.115Z,32.32
2022-08-05T10:58:17.961Z,32.33
2022-08-05T11:03:26.959Z,32.15
2022-08-05T11:05:31.605Z,32.41
2022-08-05T11:08:02.378Z,32.23
2022-08-05T11:10:04.044Z,31.67
2022-08-05T11:12:54.459Z,32.00
2022-08-05T11:15:20.343Z,31.91
2022-08-05T11:17:57.418Z,31.95
2022-08-05T11:20:17.004Z,32.51
2022-08-05T11:22:49.734Z,32.55
2022-08-05T11:26:05.500Z,32.90
2022-08-05T11:28:00.777Z,32.71
2022-08-05T11:30:02.684Z,33.36
2022-08-05T11:32:24.439Z,33.07
2022-08-05T11:34:51.575Z,33.41
2022-08-05T11:36:54.029Z,33.31
2022-08-05T11:38:57.771Z,32.69
2022-08-05T11:41:34.545Z,32.39
2022-08-05T11:44:06.729Z,33.38
2022-08-05T11:46:27.322Z,33.12
2022-08-05T11:48:11.715Z,32.88
2022-08-05T11:50:14.253Z,32.99
2022-08-05T11:52:29.183Z,33.69
2022-08-05T11:54:38.067Z,33.05
2022-08-05T11:56:52.234Z,33.19
2022-08-05T11:58:53.925Z,32.96
2022-08-05T12:01:03.671Z,33.69
2022-08-05T12:03:28.903Z,33.27
2022-08-05T12:05:39.698Z,33.05
2022-08-05T12:08:08.074Z,33.84
2022-08-05T12:10:09.643Z,33.02
2022-08-05T12:12:13.132Z,33.44
2022-08-05T12:14:14.934Z,33.54
2022-08-05T12:16:19.655Z,33.70
2022-08-05T12:18:38.924Z,33.43
2022-08-05T12:20:41.447Z,33.53
2022-08-05T12:22:43.196Z,33.37
2022-08-05T12:24:51.747Z,33.77
2022-08-05T12:26:56.845Z,33.64
2022-08-05T12:28:58.522Z,33.26
2022-08-05T12:31:02.291Z,32.95
2022-08-05T12:33:07.403Z,32.93
2022-08-05T12:35:37.126Z,33.41
2022-08-05T12:37:42.922Z,33.11
2022-08-05T12:39:51.095Z,33.14
2022-08-05T12:41:59.074Z,33.15
2022-08-05T12:44:28.553Z,33.46
2022-08-05T12:46:38.294Z,33.73
2022-08-05T12:48:43.047Z,33.22
2022-08-05T12:52:11.091Z,33.96
2022-08-05T12:53:41.870Z,34.02
2022-08-05T12:55:43.559Z,33.92
2022-08-05T12:58:50.262Z,34.02
2022-08-05T13:02:03.965Z,33.59
2022-08-05T13:02:42.236Z,33.34
2022-08-05T13:04:54.424Z,33.37
2022-08-05T13:06:58.599Z,34.11
2022-08-05T13:09:08.664Z,34.36
2022-08-05T13:11:17.532Z,33.25
2022-08-05T13:14:05.756Z,33.27
2022-08-05T13:16:01.607Z,32.98
2022-08-05T13:18:04.656Z,32.39
2022-08-05T13:20:24.642Z,32.27
2022-08-05T13:22:29.812Z,32.76
2022-08-05T13:24:51.137Z,32.36
2022-08-05T13:26:53.344Z,32.03
2022-08-05T13:28:54.976Z,31.69
2022-08-05T13:30:57.263Z,31.68
2022-08-05T13:33:01.285Z,31.88
2022-08-05T13:35:04.350Z,31.43
2022-08-05T13:37:07.313Z,31.67
2022-08-05T13:40:13.704Z,31.37
2022-08-05T13:41:37.368Z,31.00
2022-08-05T13:43:45.722Z,31.01
2022-08-05T13:45:57.054Z,30.71
2022-08-05T13:48:08.640Z,30.25
2022-08-05T13:50:16.558Z,30.42
2022-08-05T13:52:29.106Z,30.84
2022-08-05T13:54:31.087Z,30.09
2022-08-05T13:56:33.000Z,29.95
2022-08-05T13:58:35.304Z,30.72
2022-08-05T14:00:41.663Z,30.39
2022-08-05T14:02:43.320Z,30.92
2022-08-05T14:05:05.321Z,31.13
2022-08-05T14:07:25.543Z,30.44
2022-08-05T14:09:35.148Z,30.45
2022-08-05T14:12:04.216Z,30.99
2022-08-05T14:14:09.305Z,30.90
2022-08-05T14:16:11.478Z,31.47
2022-08-05T14:18:17.391Z,30.63
2022-08-05T14:20:20.582Z,31.41
2022-08-05T14:22:30.446Z,31.35
2022-08-05T14:24:37.715Z,31.12
2022-08-05T14:26:56.572Z,30.97
2022-08-05T14:29:03.763Z,30.94
2022-08-05T14:31:05.571Z,30.95
2022-08-05T14:33:23.091Z,30.67
2022-08-05T14:35:36.946Z,30.24
2022-08-05T14:37:52.162Z,31.27
2022-08-05T14:39:59.018Z,31.18
2022-08-05T14:42:19.351Z,32.16
2022-08-05T14:44:22.789Z,32.07
2022-08-05T14:46:28.108Z,31.78
2022-08-05T14:48:33.880Z,31.60
2022-08-05T14:50:39.844Z,30.90
2022-08-05T14:52:52.515Z,31.38
2022-08-05T14:54:54.942Z,31.47
2022-08-05T14:56:57.254Z,31.44
2022-08-05T14:58:58.922Z,31.33
2022-08-05T15:01:01.623Z,31.87
2022-08-05T15:03:05.789Z,32.37
2022-08-05T15:05:13.384Z,32.17
2022-08-05T15:08:12.107Z,31.52
2022-08-05T15:09:52.223Z,32.41
2022-08-05T15:11:57.918Z,32.24
2022-08-05T15:13:59.524Z,31.71
2022-08-05T15:16:02.116Z,32.69
2022-08-05T15:18:05.799Z,31.75
2022-08-05T15:20:18.217Z,31.81
2022-08-05T15:22:21.049Z,31.69
2022-08-05T15:24:23.148Z,30.96
2022-08-05T15:26:32.234Z,31.17
2022-08-05T15:28:34.276Z,31.08
2022-08-05T15:30:36.957Z,31.24
2022-08-05T15:32:40.010Z,31.17
2022-08-05T15:34:42.123Z,31.48
2022-08-05T15:36:43.759Z,31.19
2022-08-05T15:38:46.466Z,31.52
2022-08-05T15:41:04.440Z,31.89
2022-08-05T15:43:20.462Z,30.56
2022-08-05T15:45:37.876Z,31.18
2022-08-05T15:47:41.736Z,31.29
2022-08-05T15:49:56.821Z,32.14
2022-08-05T15:52:12.871Z,32.35
2022-08-05T15:54:15.974Z,31.08
2022-08-05T15:56:18.287Z,31.40
2022-08-05T15:58:20.413Z,31.31
2022-08-05T16:00:26.351Z,30.72
2022-08-05T16:02:45.441Z,31.09
2022-08-05T16:04:49.202Z,31.30
2022-08-05T16:06:50.812Z,30.86
2022-08-05T16:08:53.638Z,30.82
2022-08-05T16:10:57.143Z,30.90
2022-08-05T16:12:58.820Z,30.66
2022-08-05T16:15:01.983Z,31.13
2022-08-05T16:17:03.831Z,30.87
2022-08-05T16:19:06.345Z,30.07
2022-08-05T16:21:11.300Z,31.15
2022-08-05T16:23:15.278Z,30.93
2022-08-05T16:25:17.020Z,30.63
2022-08-05T16:27:18.691Z,30.73
2022-08-05T16:29:21.740Z,31.67
2022-08-05T16:31:24.203Z,31.13
2022-08-05T16:33:28.655Z,30.70
2022-08-05T16:35:45.248Z,30.68
2022-08-05T16:38:15.095Z,30.18
2022-08-05T16:40:24.798Z,31.05
2022-08-05T16:42:28.651Z,30.60
2022-08-05T16:44:30.450Z,30.50
2022-08-05T16:46:32.233Z,30.52
2022-08-05T16:48:35.569Z,30.35
2022-08-05T16:50:37.513Z,30.74
2022-08-05T16:52:39.170Z,30.09
2022-08-05T16:54:47.863Z,30.20
2022-08-05T16:56:52.281Z,29.83
2022-08-05T16:58:54.041Z,29.95
2022-08-05T17:00:55.689Z,29.97
2022-08-05T17:02:57.440Z,29.63
2022-08-05T17:04:59.824Z,28.78
2022-08-05T17:07:03.272Z,29.22
2022-08-05T17:09:12.694Z,30.04
2022-08-05T17:11:16.730Z,29.62
2022-08-05T17:13:21.308Z,29.55
2022-08-05T17:15:49.047Z,29.38
2022-08-05T17:17:55.421Z,29.23
2022-08-05T17:19:57.145Z,29.75
2022-08-05T17:21:58.849Z,29.34
2022-08-05T17:24:04.710Z,29.66
2022-08-05T17:26:09.795Z,30.05
2022-08-05T17:28:15.529Z,28.83
2022-08-05T17:30:19.041Z,29.04
2022-08-05T17:32:30.050Z,29.30
2022-08-05T17:34:34.915Z,28.77
2022-08-05T17:36:40.572Z,28.64
2022-08-05T17:38:42.443Z,28.69
2022-08-05T17:40:44.330Z,28.27
2022-08-05T17:42:50.514Z,28.08
2022-08-05T17:44:53.294Z,28.04
2022-08-05T17:46:54.868Z,28.07
2022-08-05T17:48:56.528Z,28.08
2022-08-05T17:50:59.689Z,27.52
2022-08-05T17:53:04.978Z,27.54
2022-08-05T17:55:07.907Z,26.53
2022-08-05T17:57:12.411Z,26.69
2022-08-05T17:59:14.139Z,27.29
2022-08-05T18:01:23.089Z,27.48
2022-08-05T18:03:59.053Z,26.45
2022-08-05T18:05:53.049Z,27.74
2022-08-05T18:07:56.872Z,26.87
2022-08-05T18:10:02.093Z,27.42
2022-08-05T18:12:11.845Z,28.25
2022-08-05T18:14:20.512Z,27.35
2022-08-05T18:16:22.496Z,28.38
2022-08-05T18:18:26.935Z,27.96
2022-08-05T18:20:31.931Z,28.41
2022-08-05T18:22:36.290Z,28.36
2022-08-05T18:24:47.940Z,27.82
2022-08-05T18:26:49.852Z,27.55
2022-08-05T18:28:52.637Z,28.53
2022-08-05T18:30:54.315Z,27.36
2022-08-05T18:33:00.435Z,27.51
2022-08-05T18:35:02.866Z,26.51
2022-08-05T18:37:12.309Z,26.83
2022-08-05T18:39:42.528Z,26.51
2022-08-05T18:41:57.092Z,26.98
2022-08-05T18:43:57.957Z,26.70
2022-08-05T18:46:09.723Z,26.55
2022-08-05T18:48:17.379Z,27.54
2022-08-05T18:50:51.580Z,27.31
2022-08-05T18:52:54.505Z,26.95
2022-08-05T18:54:56.221Z,27.00
2022-08-05T18:56:58.124Z,27.02
2022-08-05T18:59:03.009Z,26.71
2022-08-05T19:01:47.195Z,26.73
2022-08-05T19:03:55.382Z,25.94
2022-08-05T19:06:12.177Z,26.78
2022-08-05T19:08:21.668Z,26.29
2022-08-05T19:10:28.434Z,25.62
2022-08-05T19:12:33.612Z,26.19
2022-08-05T19:14:53.227Z,25.94
2022-08-05T19:16:57.147Z,26.11
2022-08-05T19:18:58.757Z,25.75
2022-08-05T19:21:00.417Z,27.26
2022-08-05T19:23:02.014Z,26.08
2022-08-05T19:25:10.709Z,26.96
2022-08-05T19:27:30.222Z,26.91
2022-08-05T19:29:35.938Z,26.09
2022-08-05T19:31:44.742Z,26.63
2022-08-05T19:33:56.374Z,27.60
2022-08-05T19:35:58.581Z,26.71
2022-08-05T19:38:06.436Z,26.00
2022-08-05T19:40:10.638Z,26.60
2022-08-05T19:42:13.578Z,26.86
2022-08-05T19:44:18.667Z,26.93
2022-08-05T19:46:30.004Z,26.76
2022-08-05T19:48:32.434Z,26.68
2022-08-05T19:50:36.715Z,26.33
2022-08-05T19:52:39.918Z,26.71
2022-08-05T19:54:41.885Z,26.30
2022-08-05T19:56:43.597Z,26.73
2022-08-05T19:58:53.852Z,26.82
2022-08-05T20:00:57.794Z,27.20
2022-08-05T20:02:59.451Z,26.40
2022-08-05T20:05:01.124Z,26.46
2022-08-05T20:07:12.988Z,26.19
2022-08-05T20:09:15.117Z,27.35
2022-08-05T20:11:20.281Z,27.22
2022-08-05T20:13:55.059Z,27.00
2022-08-05T20:15:52.576Z,27.04
2022-08-05T20:18:01.155Z,26.64
2022-08-05T20:20:07.571Z,26.66
2022-08-05T20:22:12.160Z,27.40
2022-08-05T20:24:14.515Z,27.24
2022-08-05T20:26:23.306Z,27.43
2022-08-05T20:28:25.623Z,27.51
2022-08-05T20:30:30.269Z,26.89
2022-08-05T20:32:31.972Z,27.70
2022-08-05T20:34:34.939Z,27.03
2022-08-05T20:36:39.060Z,27.30
2022-08-05T20:38:54.598Z,27.77
2022-08-05T20:40:59.861Z,27.72
2022-08-05T20:43:06.368Z,26.53
2022-08-05T20:45:08.750Z,27.21
2022-08-05T20:47:10.439Z,26.43
2022-08-05T20:49:12.450Z,27.28
2022-08-05T20:51:15.650Z,27.40
2022-08-05T20:53:36.961Z,27.48
2022-08-05T20:55:56.730Z,28.08
2022-08-05T20:58:00.637Z,27.07
2022-08-05T21:00:20.011Z,27.58
2022-08-05T21:02:26.874Z,26.87
2022-08-05T21:04:30.349Z,27.65
2022-08-05T21:06:32.050Z,27.47
2022-08-05T21:08:42.072Z,27.36
2022-08-05T21:10:48.955Z,27.14
2022-08-05T21:12:55.499Z,26.88
2022-08-05T21:15:00.089Z,26.66
2022-08-05T21:17:01.772Z,27.26
2022-08-05T21:19:04.781Z,27.21
2022-08-05T21:21:06.597Z,27.92
2022-08-05T21:23:08.432Z,27.35
2022-08-05T21:25:12.213Z,27.48
2022-08-05T21:27:13.801Z,27.31
2022-08-05T21:29:16.764Z,28.05
2022-08-05T21:31:19.486Z,27.10
2022-08-05T21:33:22.396Z,26.78
2022-08-05T21:35:29.723Z,27.79
2022-08-05T21:37:32.233Z,26.98
2022-08-05T21:39:35.063Z,27.74
2022-08-05T21:41:42.446Z,27.70
2022-08-05T21:44:03.870Z,27.30
2022-08-05T21:46:05.832Z,27.80
2022-08-05T21:48:08.878Z,27.77
2022-08-05T21:50:10.838Z,27.77
2022-08-05T21:52:22.302Z,27.62
2022-08-05T21:54:30.757Z,27.76
2022-08-05T21:56:32.774Z,27.93
2022-08-05T21:58:35.119Z,26.93
2022-08-05T22:00:38.763Z,26.65
2022-08-05T22:02:42.858Z,26.76
2022-08-05T22:04:45.329Z,26.52
2022-08-05T22:06:50.419Z,27.33
2022-08-05T22:08:52.593Z,26.42
2022-08-05T22:10:54.334Z,26.53
2022-08-05T22:14:04.976Z,26.34
2022-08-05T22:16:02.492Z,26.41
2022-08-05T22:17:48.540Z,26.23
2022-08-05T22:20:03.433Z,26.52
2022-08-05T22:22:16.054Z,25.30
2022-08-05T22:24:40.373Z,25.94
2022-08-05T22:27:17.303Z,26.32
2022-08-05T22:29:26.603Z,26.04
2022-08-05T22:31:44.407Z,25.31
2022-08-05T22:33:57.050Z,26.03
2022-08-05T22:36:02.154Z,25.82
2022-08-05T22:38:05.299Z,25.86
2022-08-05T22:40:07.877Z,26.77
2022-08-05T22:42:15.462Z,26.45
2022-08-05T22:44:27.545Z,24.62
2022-08-05T22:46:30.489Z,26.01
2022-08-05T22:48:32.345Z,26.48
2022-08-05T22:50:34.492Z,25.91
2022-08-05T22:52:37.597Z,26.04
2022-08-05T22:54:39.494Z,26.12
2022-08-05T22:56:48.309Z,25.86
2022-08-05T22:58:51.879Z,25.79
2022-08-05T23:00:57.151Z,25.78
2022-08-05T23:02:58.875Z,26.20
2022-08-05T23:05:02.076Z,25.59
2022-08-05T23:07:07.212Z,25.37
2022-08-05T23:09:27.212Z,24.97
2022-08-05T23:11:30.432Z,25.60
2022-08-05T23:13:32.443Z,26.18
2022-08-05T23:15:36.466Z,25.64
2022-08-05T23:17:59.868Z,26.79
2022-08-05T23:20:01.094Z,25.24
2022-08-05T23:22:04.187Z,25.52
2022-08-05T23:24:11.423Z,25.29
2022-08-05T23:26:13.343Z,25.69
2022-08-05T23:28:17.288Z,26.05
2022-08-05T23:30:19.049Z,25.92
2022-08-05T23:32:29.011Z,26.39
2022-08-05T23:34:30.875Z,25.55
2022-08-05T23:36:39.803Z,25.48
2022-08-05T23:38:46.137Z,25.31
2022-08-05T23:40:49.879Z,25.58
2022-08-05T23:42:53.703Z,25.55
2022-08-05T23:44:55.552Z,24.95
2022-08-05T23:46:59.864Z,25.43
2022-08-05T23:49:16.756Z,25.63
2022-08-05T23:51:19.776Z,25.70
2022-08-05T23:53:23.220Z,25.67
2022-08-05T23:55:31.090Z,25.52
2022-08-05T23:57:33.521Z,25.00
